Latest Weather Observations for Low Rocky Point

IDT60801

Issued at 7:05 pm EDT Saturday 1 November 2014 (issued every 30 minutes, with the page automatically refreshed every 10 minutes)

About weather observations | Map of weather stations | Latest weather observations for TAS | Other Formats
Station Details ID: 097080 Name: LOW ROCKY POINT Lat: -42.98 Lon: 145.50 Height: 34.0 m
Data from the previous 72 hours. | See also: Recent months at Low Rocky Point
Date/Time
EDT
Temp
°C
App
Temp
°C
Dew
Point
Rel
Hum
%
Delta-T
°C
Wind Press
QNH
hPa
Press
MSL
hPa
Rain
since 9 am
mm
Dir
 
Spd
km/h
Gust
km/h
Spd
kts
Gust
kts
01/07:00pm 6.2 -4.9 2.5 77 1.5 W 50 67 27 36 1000.2 1000.2 2.0
01/06:30pm 6.6 -5.6 2.5 75 1.7 W 56 80 30 43 999.9 999.9 1.8
01/06:26pm 8.1 -2.8 3.8 74 1.9 W 50 72 27 39 999.5 999.5 1.8
01/06:00pm 8.0 -2.4 4.0 76 1.7 W 48 61 26 33 999.1 999.1 1.8
01/05:56pm 8.3 -2.5 4.1 75 1.8 W 50 61 27 33 999.1 999.1 1.8
01/05:46pm 7.0 -8.2 3.1 76 1.6 W 72 91 39 49 998.6 998.6 1.8
01/05:42pm 7.7 -8.2 3.2 73 1.9 W 76 91 41 49 998.5 998.5 1.8
01/05:41pm 8.1 -4.1 3.6 73 1.9 W 57 91 31 49 998.5 998.5 1.8
01/05:30pm 8.7 -3.3 3.9 72 2.1 W 56 65 30 35 998.6 998.6 1.8
01/05:00pm 7.2 -4.0 3.8 79 1.5 W 52 85 28 46 998.6 998.6 1.8
01/04:57pm 7.9 -1.8 4.1 77 1.6 W 44 78 24 42 998.6 998.6 1.4
01/04:37pm 6.6 -4.4 3.2 79 1.4 W 50 61 27 33 998.4 998.4 1.4
01/04:30pm 7.4 -7.1 3.8 78 1.5 W 69 93 37 50 998.2 998.2 1.4
01/04:26pm 9.1 -4.5 4.1 71 2.2 W 65 89 35 48 997.9 997.9 1.4
01/04:14pm 9.1 -5.3 4.1 71 2.2 W 69 76 37 41 997.6 997.6 1.4
01/04:10pm 9.0 -1.7 4.8 75 1.9 W 50 69 27 37 997.7 997.7 1.4
01/04:00pm 8.7 -2.4 4.7 76 1.8 W 52 65 28 35 997.8 997.8 1.4
01/03:38pm 10.6 -2.0 3.4 61 3.2 W 59 82 32 44 997.1 997.1 1.4
01/03:30pm 11.0 -1.1 3.3 59 3.4 W 56 70 30 38 997.1 997.1 1.4
01/03:00pm 9.7 -2.8 4.3 69 2.4 W 59 70 32 38 997.1 997.1 1.4
01/02:42pm 9.6 -1.7 5.2 74 2.0 WNW 54 72 29 39 997.0 997.0 1.4
01/02:30pm 8.7 -1.9 4.9 77 1.7 NW 50 63 27 34 996.8 996.8 1.4
01/02:28pm 8.4 -3.1 4.4 76 1.8 NW 54 63 29 34 996.8 996.8 1.4
01/02:00pm 8.9 -3.6 4.3 73 2.0 W 59 82 32 44 996.7 996.7 1.4
01/01:58pm 10.3 -1.7 4.9 69 2.4 W 57 82 31 44 996.5 996.5 1.4
01/01:30pm 11.3 -0.3 6.6 73 2.2 W 57 70 31 38 996.1 996.1 1.4
01/01:09pm 10.5 -3.0 4.9 68 2.5 W 65 83 35 45 995.8 995.8 1.4
01/01:00pm 10.9 -2.4 5.9 71 2.3 W 65 76 35 41 995.6 995.6 1.4
01/12:37pm 10.2 -1.0 5.8 74 2.0 W 54 78 29 42 995.3 995.3 1.2
01/12:30pm 11.3 0.1 7.4 77 1.9 W 56 67 30 36 995.4 995.4 1.2
01/12:03pm 9.7 0.0 7.3 85 1.1 W 48 67 26 36 995.1 995.1 1.2
01/12:00pm 9.6 -0.1 7.4 86 1.1 W 48 65 26 35 995.1 995.1 1.2
01/11:53am 8.9 -3.2 6.3 84 1.2 W 59 78 32 42 995.1 995.1 1.2
01/11:49am 9.2 -4.8 6.3 82 1.3 W 69 78 37 42 995.0 995.0 1.2
01/11:38am 9.4 -0.4 7.0 85 1.1 W 48 67 26 36 994.8 994.8 1.2
01/11:30am 9.7 -1.8 7.1 84 1.2 W 57 70 31 38 994.7 994.7 1.0
01/11:00am 10.0 -1.8 7.6 85 1.2 W 59 74 32 40 994.1 994.1 1.0
01/10:36am 8.8 -2.1 5.7 81 1.4 WNW 52 70 28 38 993.9 993.9 1.0
01/10:30am 9.9 -1.8 6.2 78 1.7 W 57 69 31 37 993.9 993.9 0.6
01/10:00am 10.8 0.8 8.0 83 1.4 WNW 50 65 27 35 993.4 993.4 0.6
01/09:30am 9.8 -0.4 7.1 83 1.3 WNW 50 69 27 37 993.3 993.3 0.6
01/09:00am 10.3 1.1 6.5 77 1.8 W 44 63 24 34 993.4 993.4 12.6
01/08:30am 11.7 2.9 8.0 78 1.8 WNW 44 54 24 29 993.4 993.4 12.6
01/08:00am 11.5 1.9 8.0 79 1.7 WNW 48 57 26 31 993.3 993.3 12.6
01/07:30am 11.2 1.2 7.9 80 1.6 WNW 50 59 27 32 992.9 992.9 12.6
01/07:00am 10.8 0.1 8.0 83 1.4 WNW 54 63 29 34 992.6 992.6 12.6
01/06:30am 10.7 0.6 9.1 90 0.8 W 52 61 28 33 992.2 992.2 12.6
01/06:00am 10.8 0.6 10.0 95 0.4 W 54 65 29 35 991.8 991.8 12.6
01/05:30am 10.8 0.8 10.6 99 0.1 W 54 63 29 34 991.3 991.3 12.6
01/05:00am 11.1 2.3 10.9 99 0.1 WNW 48 57 26 31 990.5 990.4 12.4
01/04:30am 10.8 1.5 10.6 99 0.1 NW 50 80 27 43 990.2 990.2 12.2
01/04:25am 11.7 4.0 11.5 99 0.1 NNW 43 80 23 43 989.8 989.8 11.8
01/04:20am 11.7 4.4 11.5 99 0.1 NNW 41 59 22 32 989.4 989.4 11.0
01/04:00am 11.6 4.6 11.4 99 0.1 NNW 39 56 21 30 989.6 989.5 10.2
01/03:31am 12.0 3.8 11.8 99 0.1 NNW 46 65 25 35 990.2 990.2 9.8
01/03:30am 12.0 3.4 11.8 99 0.1 NNW 48 65 26 35 990.1 990.1 9.8
01/03:00am 12.0 2.7 11.8 99 0.1 NNW 52 65 28 35 990.9 990.8 9.4
01/02:47am 11.9 2.2 11.7 99 0.1 NNW 54 72 29 39 990.8 990.8 9.2
01/02:30am 12.0 1.9 11.8 99 0.1 NW 56 70 30 38 991.1 991.1 8.8
01/02:24am 12.2 2.9 12.0 99 0.1 NW 52 70 28 38 991.1 991.1 8.6
01/02:00am 12.6 3.9 12.4 99 0.1 NW 50 63 27 34 991.4 991.3 7.6
01/01:30am 13.2 6.4 13.0 99 0.1 NNW 41 54 22 29 991.3 991.3 5.8
01/01:00am 13.4 6.0 13.1 98 0.2 NNW 44 57 24 31 992.1 992.1 4.4
01/12:30am 13.6 3.9 13.1 97 0.3 NW 56 69 30 37 992.5 992.5 3.8
01/12:00am 13.6 4.6 12.8 95 0.4 NW 52 67 28 36 992.3 992.3 3.8
 
Date/Time
EDT
Temp
°C
App
Temp
°C
Dew
Point
Rel
Hum
%
Delta-T
°C
Wind Press
QNH
hPa
Press
MSL
hPa
Rain
since 9 am
mm
Dir
 
Spd
km/h
Gust
km/h
Spd
kts
Gust
kts
31/11:30pm 14.0 2.9 12.7 92 0.7 NW 63 85 34 46 991.9 991.9 3.6
31/11:28pm 14.0 2.9 12.7 92 0.7 NW 63 85 34 46 992.1 992.1 3.6
31/11:27pm 14.0 4.0 12.7 92 0.7 NW 57 70 31 38 992.1 992.1 3.6
31/11:22pm 14.3 7.8 12.9 91 0.8 NW 39 57 21 31 992.4 992.4 3.6
31/11:00pm 14.5 8.5 13.2 92 0.7 NNW 37 50 20 27 991.5 991.4 3.6
31/10:36pm 14.4 7.9 13.0 91 0.8 N 39 57 21 31 991.6 991.6 3.4
31/10:30pm 14.4 8.7 13.0 91 0.8 N 35 48 19 26 991.6 991.6 3.4
31/10:00pm 14.5 8.8 12.9 90 0.9 N 35 50 19 27 992.3 992.3 2.8
31/09:48pm 14.5 8.7 12.7 89 1.0 NNW 35 56 19 30 992.3 992.3 2.6
31/09:30pm 14.5 8.6 12.5 88 1.1 NNW 35 50 19 27 992.9 992.9 2.4
31/09:00pm 14.8 8.1 12.3 85 1.4 NNW 39 50 21 27 992.7 992.7 2.0
31/08:32pm 14.7 6.8 11.3 80 1.8 NNW 44 63 24 34 992.8 992.8 1.8
31/08:30pm 14.8 6.5 11.4 80 1.8 NNW 46 63 25 34 992.9 992.9 1.8
31/08:06pm 15.3 6.2 11.1 76 2.2 NNW 50 69 27 37 993.5 993.5 1.6
31/08:00pm 15.5 5.5 10.9 74 2.5 NNW 54 65 29 35 993.7 993.7 1.6
31/07:33pm 18.2 9.6 10.3 60 4.2 NNW 46 65 25 35 993.2 993.2 1.6
31/07:30pm 17.8 9.2 10.4 62 4.0 NNW 46 57 25 31 993.3 993.3 1.6
31/07:00pm 18.1 11.0 9.5 57 4.6 NNW 37 59 20 32 993.5 993.5 1.6
31/06:50pm 18.2 11.1 9.5 57 4.6 N 37 56 20 30 993.4 993.4 1.6
31/06:30pm 18.0 11.4 9.9 59 4.3 N 35 48 19 26 993.4 993.4 1.6
31/06:00pm 17.7 11.3 10.6 63 3.8 N 35 48 19 26 993.8 993.8 1.6
31/05:36pm 17.6 11.4 11.4 67 3.4 N 35 54 19 29 994.0 994.0 1.6
31/05:30pm 17.6 11.4 11.4 67 3.4 N 35 50 19 27 994.0 994.0 1.6
31/05:17pm 17.9 11.4 11.7 67 3.4 NNW 37 59 20 32 994.2 994.2 1.6
31/05:00pm 17.8 11.8 12.0 69 3.2 N 35 52 19 28 994.4 994.4 1.6
31/04:34pm 18.3 11.9 13.2 72 2.9 N 39 57 21 31 994.7 994.7 1.6
31/04:30pm 18.0 11.6 13.3 74 2.7 N 39 54 21 29 994.8 994.8 1.6
31/04:15pm 17.2 11.7 13.7 80 2.0 N 35 56 19 30 995.3 995.3 1.6
31/04:00pm 17.5 13.5 15.3 87 1.3 N 30 43 16 23 995.9 995.9 1.6
31/03:30pm 16.3 12.7 15.2 93 0.6 N 28 37 15 20 997.0 997.0 1.6
31/03:00pm 14.5 9.5 13.5 94 0.6 N 32 48 17 26 998.1 998.1 1.6
31/02:30pm 13.9 8.2 13.1 95 0.4 N 35 50 19 27 998.7 998.7 1.4
31/02:00pm 13.2 7.8 12.3 94 0.5 N 32 44 17 24 999.7 999.7 1.4
31/01:30pm 12.8 7.6 11.5 92 0.7 NNW 30 46 16 25 1000.1 1000.1 1.0
31/01:00pm 13.4 7.9 11.8 90 0.9 NNW 32 48 17 26 1000.3 1000.3 0.6
31/12:40pm 13.1 7.6 11.7 91 0.7 NNW 32 50 17 27 1001.1 1001.1 0.6
31/12:30pm 13.2 7.1 11.9 92 0.7 NNW 35 50 19 27 1001.1 1001.1 0.6
31/12:00pm 12.7 6.3 11.9 95 0.4 NNW 37 50 20 27 1001.6 1001.6 0.6
31/11:35am 12.3 5.3 11.4 94 0.5 NNW 39 57 21 31 1002.1 1002.1 0.6
31/11:30am 12.4 5.5 11.5 94 0.5 NNW 39 52 21 28 1002.0 1002.0 0.6
31/11:22am 12.3 6.7 11.4 94 0.5 NNW 32 52 17 28 1002.0 1002.0 0.6
31/11:00am 11.9 4.9 11.1 95 0.4 NNW 39 54 21 29 1002.5 1002.5 0.6
31/10:30am 11.5 4.3 10.7 95 0.4 NNW 39 52 21 28 1003.0 1003.0 0.6
31/10:00am 11.4 5.2 10.1 92 0.7 NNW 33 46 18 25 1003.4 1003.4 0.4
31/09:30am 12.5 5.1 11.1 91 0.7 NNW 41 59 22 32 1003.4 1003.4 0.0
31/09:16am 12.2 5.9 10.9 92 0.7 NNW 35 54 19 29 1003.7 1003.7 0.0
31/09:00am 12.3 6.6 11.2 93 0.6 NNW 32 44 17 24 1004.1 1004.1 1.6
31/08:37am 12.1 4.7 11.3 95 0.4 NW 41 59 22 32 1004.2 1004.2 1.6
31/08:30am 11.8 4.0 11.0 95 0.4 NW 43 54 23 29 1003.9 1003.9 1.6
31/08:08am 11.6 2.7 10.7 94 0.5 NW 48 67 26 36 1004.0 1004.0 1.6
31/08:00am 11.8 1.5 10.9 94 0.5 NW 56 67 30 36 1004.0 1004.0 1.6
31/07:57am 11.6 1.0 10.7 94 0.5 NNW 57 63 31 34 1004.0 1004.0 1.6
31/07:51am 11.4 5.5 10.6 95 0.4 NNW 32 52 17 28 1004.2 1004.2 1.6
31/07:30am 11.1 2.9 10.5 96 0.3 NNW 44 56 24 30 1004.3 1004.3 1.6
31/07:00am 11.4 2.6 11.1 98 0.2 NNW 48 59 26 32 1004.5 1004.5 1.6
31/06:30am 11.2 2.4 11.0 99 0.1 NW 48 57 26 31 1004.5 1004.5 1.6
31/06:00am 11.6 3.3 11.4 99 0.1 NW 46 59 25 32 1004.6 1004.6 1.4
31/05:30am 11.5 3.7 11.3 99 0.1 NW 43 56 23 30 1004.7 1004.7 1.4
31/05:00am 11.6 3.7 11.4 99 0.1 NW 44 61 24 33 1005.0 1005.0 1.4
31/04:56am 11.7 4.0 11.5 99 0.1 NW 43 61 23 33 1004.9 1004.9 1.4
31/04:30am 11.6 3.9 11.4 99 0.1 NW 43 52 23 28 1005.4 1005.4 1.4
31/04:00am 11.8 4.1 11.6 99 0.1 NW 43 52 23 28 1005.7 1005.7 1.4
31/03:30am 12.0 4.8 11.8 99 0.1 NW 41 48 22 26 1005.9 1005.9 1.2
31/03:00am 11.8 4.5 11.6 99 0.1 NW 41 50 22 27 1006.3 1006.3 1.0
31/02:30am 11.9 4.3 11.7 99 0.1 NW 43 56 23 30 1006.4 1006.4 0.8
31/02:00am 11.9 5.0 11.6 98 0.2 NW 39 50 21 27 1006.8 1006.8 0.8
31/01:30am 11.9 4.2 11.6 98 0.2 NW 43 54 23 29 1007.3 1007.3 0.6
31/01:00am 11.9 4.2 11.6 98 0.2 NW 43 52 23 28 1007.6 1007.6 0.6
31/12:30am 12.2 4.9 11.7 97 0.3 NW 41 52 22 28 1007.9 1007.9 0.4
31/12:00am 11.9 4.6 11.4 97 0.3 NW 41 56 22 30 1008.0 1008.0 0.4
 
Date/Time
EDT
Temp
°C
App
Temp
°C
Dew
Point
Rel
Hum
%
Delta-T
°C
Wind Press
QNH
hPa
Press
MSL
hPa
Rain
since 9 am
mm
Dir
 
Spd
km/h
Gust
km/h
Spd
kts
Gust
kts
30/11:30pm 12.2 5.3 11.7 97 0.3 NW 39 46 21 25 1008.1 1008.1 0.2
30/11:00pm 12.1 4.8 11.6 97 0.3 NW 41 50 22 27 1008.3 1008.3 0.2
30/10:30pm 11.7 4.7 11.4 98 0.2 NW 39 46 21 25 1008.6 1008.6 0.2
30/10:00pm 11.6 5.7 11.1 97 0.3 NW 33 43 18 23 1008.9 1008.9 0.2
30/09:30pm 11.0 6.6 10.4 96 0.3 NW 24 32 13 17 1009.1 1009.1 0.2
30/09:00pm 10.5 5.5 9.6 94 0.5 NW 26 32 14 17 1009.1 1009.1 0.2
30/08:30pm 10.6 4.7 9.2 91 0.7 NW 30 37 16 20 1009.2 1009.2 0.2
30/08:00pm 10.9 4.6 9.0 88 0.9 NW 32 39 17 21 1009.3 1009.3 0.2
30/07:30pm 11.2 4.9 8.9 86 1.1 NW 32 41 17 22 1009.1 1009.1 0.2
30/07:00pm 11.5 4.2 8.9 84 1.3 NW 37 43 20 23 1008.9 1008.9 0.2
30/06:30pm 11.8 4.9 9.0 83 1.4 NW 35 43 19 23 1008.7 1008.7 0.2
30/06:00pm 12.6 6.2 9.2 80 1.7 NW 33 43 18 23 1008.9 1008.9 0.2
30/05:30pm 12.7 7.1 8.8 77 2.0 NW 28 35 15 19 1009.0 1009.0 0.2
30/05:00pm 12.4 5.4 8.3 76 2.0 NW 35 43 19 23 1009.2 1009.2 0.2
30/04:30pm 12.5 5.9 8.4 76 2.0 NW 33 41 18 22 1009.1 1009.1 0.2
30/04:00pm 12.6 6.1 8.3 75 2.1 WNW 32 39 17 21 1009.2 1009.2 0.2
30/03:30pm 12.8 6.2 8.5 75 2.1 WNW 33 46 18 25 1009.2 1009.2 0.2
30/03:00pm 13.3 6.5 9.2 76 2.1 WNW 35 43 19 23 1009.4 1009.4 0.2
30/02:30pm 13.3 6.5 9.4 77 2.0 WNW 35 46 19 25 1009.4 1009.4 0.2
30/02:00pm 12.4 5.4 10.1 86 1.2 WNW 37 44 20 24 1009.2 1009.2 0.2
30/01:30pm 12.2 6.7 10.4 89 0.9 NW 30 39 16 21 1009.3 1009.3 0.2
30/01:00pm 12.2 7.6 10.9 92 0.7 NW 26 32 14 17 1009.1 1009.1 0.2
30/12:30pm 11.8 8.2 10.5 92 0.7 WNW 20 24 11 13 1009.0 1009.0 0.2
30/12:00pm 11.5 6.0 9.2 86 1.2 WNW 28 35 15 19 1009.4 1009.4 0.0
30/11:30am 12.3 7.5 10.4 88 1.0 NW 26 30 14 16 1009.3 1009.3 0.0
30/11:00am 11.9 7.9 10.3 90 0.8 NW 22 30 12 16 1009.6 1009.6 0.0
30/10:30am 10.6 5.8 9.0 90 0.8 WNW 24 30 13 16 1009.8 1009.8 0.0
30/10:00am 11.1 6.9 9.7 91 0.7 W 22 28 12 15 1009.7 1009.7 0.0
30/09:30am 10.7 5.8 9.8 94 0.5 W 26 32 14 17 1009.4 1009.4 0.0
30/09:00am 10.8 6.4 10.3 97 0.3 W 24 32 13 17 1009.3 1009.3 5.4
30/08:30am 10.2 5.7 9.9 98 0.2 W 24 32 13 17 1009.1 1009.1 5.4
30/08:00am 9.7 5.0 9.4 98 0.1 W 24 33 13 18 1009.0 1009.0 5.4
30/07:30am 10.0 3.8 9.5 97 0.2 WSW 32 43 17 23 1008.7 1008.7 5.0
30/07:17am 10.1 3.8 9.6 97 0.3 WSW 33 39 18 21 1008.7 1008.7 4.8
30/07:00am 11.2 4.0 10.7 97 0.3 WNW 39 46 21 25 1008.4 1008.4 4.0
30/06:30am 11.1 3.9 10.6 97 0.3 WNW 39 46 21 25 1008.2 1008.2 3.8
30/06:00am 11.6 4.8 10.8 95 0.4 WNW 37 48 20 26 1007.8 1007.8 3.0
30/05:30am 11.5 4.3 10.6 94 0.5 WNW 39 50 21 27 1007.6 1007.6 3.0
30/05:00am 11.2 4.2 10.1 93 0.6 WNW 37 46 20 25 1007.4 1007.4 2.8
30/04:30am 11.4 4.4 10.1 92 0.7 WNW 37 48 20 26 1007.3 1007.3 2.6
30/04:00am 11.5 4.3 10.6 94 0.5 WNW 39 46 21 25 1007.7 1007.7 2.6
30/03:30am 11.2 4.0 10.6 96 0.3 WNW 39 50 21 27 1007.8 1007.8 2.6
30/03:00am 11.1 3.6 10.8 98 0.2 WNW 41 48 22 26 1007.8 1007.8 2.6
30/02:30am 10.9 2.9 10.6 98 0.2 WNW 43 54 23 29 1007.8 1007.8 2.6
30/02:00am 11.3 3.5 11.0 98 0.2 WNW 43 52 23 28 1007.9 1007.9 2.6
30/01:30am 11.0 2.9 10.7 98 0.2 WNW 44 65 24 35 1007.8 1007.8 2.6
30/01:25am 11.4 3.5 10.9 97 0.3 WNW 43 65 23 35 1007.7 1007.7 2.6
30/01:00am 11.2 3.3 10.7 97 0.3 WNW 43 52 23 28 1007.9 1007.9 2.6
30/12:30am 10.9 3.6 10.1 95 0.4 WNW 39 48 21 26 1008.3 1008.3 2.6
30/12:26am 10.9 2.8 10.0 94 0.5 WNW 43 61 23 33 1008.3 1008.3 2.6
30/12:12am 11.4 3.3 10.1 92 0.7 W 43 54 23 29 1008.3 1008.3 2.2
30/12:00am 11.9 3.4 10.6 92 0.7 NW 46 57 25 31 1008.1 1008.1 2.2
 
Date/Time
EDT
Temp
°C
App
Temp
°C
Dew
Point
Rel
Hum
%
Delta-T
°C
Wind Press
QNH
hPa
Press
MSL
hPa
Rain
since 9 am
mm
Dir
 
Spd
km/h
Gust
km/h
Spd
kts
Gust
kts
29/11:30pm 11.8 3.9 10.9 94 0.5 NW 43 54 23 29 1008.4 1008.4 2.2
29/11:00pm 11.7 3.8 10.9 95 0.4 NW 43 52 23 28 1008.6 1008.6 2.2
29/10:30pm 11.5 3.4 10.7 95 0.4 WNW 44 54 24 29 1008.7 1008.7 2.2
29/10:00pm 11.3 3.7 10.5 95 0.4 WNW 41 52 22 28 1008.7 1008.7 2.2
29/09:30pm 11.9 3.5 11.0 94 0.5 NW 46 59 25 32 1008.6 1008.6 1.6
29/09:00pm 11.9 3.5 11.0 94 0.5 NW 46 59 25 32 1008.5 1008.5 1.6
29/08:30pm 11.8 3.4 11.0 95 0.4 WNW 46 57 25 31 1008.5 1008.5 1.6
29/08:00pm 11.4 2.9 10.8 96 0.3 NW 46 57 25 31 1008.4 1008.4 1.6
29/07:30pm 11.3 2.4 10.5 95 0.4 NW 48 57 26 31 1008.4 1008.4 1.6

Other Formats:

Comma delimited format used in spreadsheet applications
http://www.bom.gov.au/fwo/IDT60801/IDT60801.95961.axf

JavaScript Object Notation format (JSON) in row-major order
http://www.bom.gov.au/fwo/IDT60801/IDT60801.95961.json